Kyles Ford, Tennessee
Current Conditions -  °F | °C
As of 11:15 AM on Monday 24 Nov 2014 (Local Time) from K0VG Reporting Station
Broken Clouds Broken Clouds  
Wind Chill: 66°   Ceiling: 4500
Heat Index: 66°   Visibility: 10mi
Dew Point: 50°   Wind: 20mph
Humidity: 56%   Direction: 230°SW
Pressure: 29.7"   Gusts: 29mph
Location:  36.57°N, 83.04°W
Report Text: K0VG 241615Z AUTO 23017G25KT 10SM FEW037 BKN045 BKN049 19/10 A2970 RMK AO2
Loading
Personal Weather Stations






























Interactive Weather Map New forecast layout! Learn more

10-Day Weather Forecast

Advertisements
Track Severe Weather on mobile